createdAt,value
2022-10-27T00:00:44.408Z,73.44
2022-10-27T00:03:15.453Z,73.41
2022-10-27T00:05:44.222Z,73.10
2022-10-27T00:08:20.048Z,73.46
2022-10-27T00:11:00.027Z,73.75
2022-10-27T00:13:27.707Z,73.07
2022-10-27T00:16:03.719Z,73.48
2022-10-27T00:18:31.409Z,73.36
2022-10-27T00:21:10.392Z,73.26
2022-10-27T00:23:38.224Z,73.22
2022-10-27T00:26:06.898Z,73.56
2022-10-27T00:28:34.813Z,73.60
2022-10-27T00:31:07.712Z,73.79
2022-10-27T00:33:34.802Z,73.75
2022-10-27T00:36:22.774Z,73.35
2022-10-27T00:38:53.465Z,73.16
2022-10-27T00:41:30.638Z,73.06
2022-10-27T00:43:59.892Z,73.54
2022-10-27T00:46:43.030Z,73.59
2022-10-27T00:49:13.824Z,73.76
2022-10-27T00:51:48.661Z,73.77
2022-10-27T00:54:17.991Z,73.37
2022-10-27T00:56:47.855Z,72.91
2022-10-27T00:59:15.497Z,73.16
2022-10-27T01:01:42.666Z,73.35
2022-10-27T01:04:10.068Z,73.51
2022-10-27T01:06:36.882Z,73.20
2022-10-27T01:09:05.273Z,73.54
2022-10-27T01:11:32.129Z,73.26
2022-10-27T01:13:59.106Z,73.86
2022-10-27T01:16:55.389Z,73.80
2022-10-27T01:19:59.689Z,73.89
2022-10-27T01:22:32.677Z,73.53
2022-10-27T01:25:05.366Z,73.87
2022-10-27T01:28:00.210Z,73.64
2022-10-27T01:30:30.581Z,74.07
2022-10-27T01:33:11.260Z,74.10
2022-10-27T01:36:02.861Z,73.98
2022-10-27T01:38:45.831Z,73.43
2022-10-27T01:41:30.928Z,74.03
2022-10-27T01:44:04.416Z,73.86
2022-10-27T01:46:31.349Z,74.42
2022-10-27T01:48:58.791Z,73.78
2022-10-27T01:53:57.685Z,74.08
2022-10-27T01:56:40.541Z,73.85
2022-10-27T01:59:19.736Z,74.13
2022-10-27T02:02:07.554Z,74.93
2022-10-27T02:04:46.939Z,74.28
2022-10-27T02:07:58.906Z,74.63
2022-10-27T02:10:32.572Z,74.82
2022-10-27T02:13:00.588Z,74.58
2022-10-27T02:15:38.150Z,74.98
2022-10-27T02:18:17.460Z,74.06
2022-10-27T02:20:49.945Z,74.20
2022-10-27T02:23:20.277Z,74.08
2022-10-27T02:26:05.279Z,74.35
2022-10-27T02:28:51.981Z,74.23
2022-10-27T02:31:21.780Z,74.68
2022-10-27T02:33:49.711Z,74.53
2022-10-27T02:36:17.094Z,74.00
2022-10-27T02:38:43.966Z,74.13
2022-10-27T02:41:10.706Z,74.60
2022-10-27T02:43:37.566Z,74.31
2022-10-27T02:46:04.416Z,74.67
2022-10-27T02:48:31.216Z,74.52
2022-10-27T02:50:59.047Z,73.91
2022-10-27T02:53:25.845Z,73.48
2022-10-27T02:55:52.775Z,73.52
2022-10-27T02:58:19.759Z,73.79
2022-10-27T03:00:46.728Z,74.21
2022-10-27T03:03:13.673Z,73.78
2022-10-27T03:05:42.426Z,74.80
2022-10-27T03:08:10.192Z,74.01
2022-10-27T03:10:36.991Z,73.54
2022-10-27T03:13:03.839Z,73.28
2022-10-27T03:15:30.644Z,73.87
2022-10-27T03:17:57.467Z,73.71
2022-10-27T03:20:24.370Z,73.66
2022-10-27T03:22:51.340Z,74.06
2022-10-27T03:25:18.472Z,74.28
2022-10-27T03:27:45.398Z,74.02
2022-10-27T03:30:15.328Z,73.73
2022-10-27T03:32:47.435Z,74.38
2022-10-27T03:35:15.359Z,74.19
2022-10-27T03:37:42.359Z,74.01
2022-10-27T03:40:10.951Z,73.38
2022-10-27T03:42:42.274Z,74.24
2022-10-27T03:45:12.383Z,74.33
2022-10-27T03:47:39.345Z,74.21
2022-10-27T03:50:06.701Z,74.17
2022-10-27T03:52:33.652Z,73.94
2022-10-27T03:55:00.665Z,73.83
2022-10-27T03:57:27.713Z,73.43
2022-10-27T03:59:54.627Z,73.79
2022-10-27T04:02:21.526Z,73.57
2022-10-27T04:04:48.802Z,74.08
2022-10-27T04:07:15.658Z,73.88
2022-10-27T04:09:42.474Z,74.73
2022-10-27T04:12:09.402Z,73.63
2022-10-27T04:14:36.224Z,73.75
2022-10-27T04:17:03.004Z,73.47
2022-10-27T04:19:29.857Z,73.29
2022-10-27T04:21:56.720Z,73.50
2022-10-27T04:24:23.617Z,73.28
2022-10-27T04:26:50.513Z,73.59
2022-10-27T04:29:17.345Z,73.09
2022-10-27T04:31:44.128Z,73.12
2022-10-27T04:34:10.944Z,73.85
2022-10-27T04:36:37.800Z,72.88
2022-10-27T04:39:04.838Z,72.69
2022-10-27T04:41:32.097Z,73.34
2022-10-27T04:43:59.237Z,72.47
2022-10-27T04:46:26.164Z,73.13
2022-10-27T04:48:52.929Z,72.86
2022-10-27T04:51:22.233Z,72.32
2022-10-27T04:53:50.578Z,72.39
2022-10-27T04:56:17.529Z,72.41
2022-10-27T04:58:44.930Z,72.19
2022-10-27T05:01:13.820Z,72.20
2022-10-27T05:03:40.909Z,71.86
2022-10-27T05:06:08.102Z,71.60
2022-10-27T05:08:35.017Z,72.09
2022-10-27T05:11:01.806Z,72.09
2022-10-27T05:13:28.697Z,71.49
2022-10-27T05:16:05.800Z,71.78
2022-10-27T05:18:32.771Z,71.12
2022-10-27T05:20:59.665Z,71.44
2022-10-27T05:23:26.583Z,71.07
2022-10-27T05:25:55.319Z,70.95
2022-10-27T05:28:22.827Z,71.09
2022-10-27T05:30:49.883Z,71.16
2022-10-27T05:33:16.810Z,70.94
2022-10-27T05:35:43.961Z,70.73
2022-10-27T05:38:10.900Z,70.10
2022-10-27T05:40:37.780Z,70.32
2022-10-27T05:43:04.853Z,70.55
2022-10-27T05:45:31.694Z,70.94
2022-10-27T05:48:03.401Z,71.06
2022-10-27T05:50:30.736Z,70.45
2022-10-27T05:52:57.925Z,70.54
2022-10-27T05:55:25.178Z,70.54
2022-10-27T05:57:59.740Z,70.53
2022-10-27T06:00:29.654Z,70.73
2022-10-27T06:02:57.956Z,70.37
2022-10-27T06:05:26.079Z,70.96
2022-10-27T06:07:53.466Z,70.35
2022-10-27T06:10:20.780Z,70.87
2022-10-27T06:12:47.616Z,70.73
2022-10-27T06:15:14.807Z,71.06
2022-10-27T06:17:41.690Z,70.29
2022-10-27T06:20:09.133Z,70.88
2022-10-27T06:22:35.965Z,70.41
2022-10-27T06:25:02.757Z,70.00
2022-10-27T06:27:31.436Z,70.34
2022-10-27T06:29:58.286Z,70.33
2022-10-27T06:34:56.944Z,69.52
2022-10-27T06:37:23.792Z,69.95
2022-10-27T06:39:50.702Z,70.08
2022-10-27T06:42:17.473Z,69.35
2022-10-27T06:44:53.505Z,70.08
2022-10-27T06:47:20.393Z,69.20
2022-10-27T06:49:47.200Z,69.68
2022-10-27T06:52:14.190Z,69.91
2022-10-27T06:54:41.223Z,69.05
2022-10-27T06:57:08.087Z,69.53
2022-10-27T06:59:34.881Z,69.85
2022-10-27T07:02:03.429Z,70.24
2022-10-27T07:04:30.527Z,70.58
2022-10-27T07:06:57.781Z,70.17
2022-10-27T07:09:24.671Z,69.98
2022-10-27T07:11:51.525Z,71.39
2022-10-27T07:14:18.372Z,70.45
2022-10-27T07:16:45.253Z,70.53
2022-10-27T07:19:12.156Z,70.10
2022-10-27T07:21:39.068Z,69.91
2022-10-27T07:24:08.775Z,69.71
2022-10-27T07:26:37.709Z,69.56
2022-10-27T07:29:04.527Z,69.99
2022-10-27T07:31:31.379Z,69.89
2022-10-27T07:33:58.224Z,70.35
2022-10-27T07:36:25.177Z,69.81
2022-10-27T07:38:51.932Z,70.33
2022-10-27T07:41:18.811Z,69.87
2022-10-27T07:43:45.700Z,69.48
2022-10-27T07:46:12.861Z,69.35
2022-10-27T07:48:39.599Z,70.10
2022-10-27T07:51:06.621Z,69.96
2022-10-27T07:53:33.470Z,69.91
2022-10-27T07:56:00.844Z,69.39
2022-10-27T07:58:27.678Z,69.54
2022-10-27T08:00:54.984Z,69.53
2022-10-27T08:03:25.148Z,69.92
2022-10-27T08:05:52.954Z,69.74
2022-10-27T08:08:24.527Z,69.06
2022-10-27T08:10:51.625Z,68.52
2022-10-27T08:13:18.526Z,69.07
2022-10-27T08:15:45.650Z,68.81
2022-10-27T08:18:12.982Z,68.65
2022-10-27T08:20:43.415Z,69.61
2022-10-27T08:23:16.880Z,69.30
2022-10-27T08:25:44.724Z,69.38
2022-10-27T08:28:29.432Z,69.39
2022-10-27T08:30:56.455Z,69.15
2022-10-27T08:33:23.276Z,69.35
2022-10-27T08:35:56.377Z,69.53
2022-10-27T13:57:56.795Z,69.46
2022-10-27T14:00:32.885Z,70.13
2022-10-27T14:03:31.965Z,70.03
2022-10-27T14:05:59.642Z,69.08
2022-10-27T14:08:46.317Z,68.71
2022-10-27T14:11:21.551Z,69.02
2022-10-27T14:13:51.079Z,68.39
2022-10-27T14:16:26.599Z,69.06
2022-10-27T14:19:15.146Z,68.64
2022-10-27T14:21:49.311Z,69.36
2022-10-27T14:24:22.202Z,68.66
2022-10-27T14:26:49.284Z,68.89
2022-10-27T14:29:21.393Z,68.98
2022-10-27T14:31:48.749Z,69.49
2022-10-27T14:34:26.383Z,68.79
2022-10-27T14:36:55.348Z,68.29
2022-10-27T14:39:32.769Z,68.51
2022-10-27T14:42:12.185Z,68.52
2022-10-27T14:44:39.247Z,68.41
2022-10-27T14:47:12.682Z,68.58
2022-10-27T14:49:46.856Z,68.78
2022-10-27T14:52:40.410Z,69.34
2022-10-27T14:55:21.603Z,69.64
2022-10-27T14:57:52.105Z,68.95
2022-10-27T15:00:32.584Z,69.42
2022-10-27T15:03:02.257Z,69.45
2022-10-27T15:05:32.867Z,69.28
2022-10-27T15:08:02.630Z,69.46
2022-10-27T15:10:40.479Z,69.91
2022-10-27T15:13:16.410Z,69.39
2022-10-27T15:15:47.991Z,69.49
2022-10-27T15:18:31.056Z,68.67
2022-10-27T15:20:59.438Z,69.32
2022-10-27T15:23:26.960Z,69.26
2022-10-27T15:25:58.608Z,69.53
2022-10-27T15:28:46.083Z,69.82
2022-10-27T15:31:13.355Z,69.83
2022-10-27T15:33:40.928Z,69.23
2022-10-27T15:36:15.424Z,69.42
2022-10-27T15:38:43.950Z,69.17
2022-10-27T15:41:17.348Z,69.06
2022-10-27T15:43:51.940Z,68.83
2022-10-27T15:46:31.698Z,69.40
2022-10-27T15:49:01.746Z,69.32
2022-10-27T15:51:59.934Z,69.36
2022-10-27T15:54:46.879Z,69.20
2022-10-27T15:57:36.412Z,69.08
2022-10-27T16:00:09.511Z,69.23
2022-10-27T16:02:51.949Z,69.10
2022-10-27T16:05:31.086Z,68.86
2022-10-27T16:08:20.870Z,68.88
2022-10-27T16:10:52.620Z,68.53
2022-10-27T16:13:21.666Z,68.24
2022-10-27T16:15:49.501Z,68.46
2022-10-27T16:18:20.421Z,69.08
2022-10-27T16:20:47.418Z,69.37
2022-10-27T16:23:15.650Z,68.59
2022-10-27T16:25:45.761Z,68.73
2022-10-27T16:28:20.067Z,68.69
2022-10-27T16:30:47.436Z,69.60
2022-10-27T16:33:20.577Z,69.31
2022-10-27T16:35:47.998Z,69.16
2022-10-27T16:38:17.406Z,68.87
2022-10-27T16:40:47.956Z,68.91
2022-10-27T16:43:24.829Z,68.74
2022-10-27T16:45:51.753Z,69.28
2022-10-27T16:48:18.887Z,69.24
2022-10-27T16:50:46.918Z,68.71
2022-10-27T16:53:14.264Z,69.17
2022-10-27T16:55:41.385Z,68.78
2022-10-27T16:58:08.358Z,68.64
2022-10-27T17:00:35.585Z,68.43
2022-10-27T17:03:02.708Z,67.69
2022-10-27T17:05:29.839Z,69.03
2022-10-27T17:07:59.777Z,68.64
2022-10-27T17:10:26.919Z,68.59
2022-10-27T17:12:54.217Z,68.24
2022-10-27T17:15:21.515Z,68.81
2022-10-27T17:17:48.666Z,68.47
2022-10-27T17:20:15.952Z,68.03
2022-10-27T17:22:42.910Z,67.63
2022-10-27T17:25:09.997Z,67.66
2022-10-27T17:27:36.965Z,67.84
2022-10-27T17:30:16.166Z,68.54
2022-10-27T17:32:46.473Z,67.85
2022-10-27T17:35:14.023Z,67.71
2022-10-27T17:37:41.179Z,67.99
2022-10-27T17:40:14.556Z,68.42
2022-10-27T17:42:41.645Z,68.13
2022-10-27T17:45:08.981Z,68.02
2022-10-27T17:47:36.256Z,68.58
2022-10-27T17:50:08.964Z,68.74
2022-10-27T17:52:39.524Z,68.52
2022-10-27T17:55:06.968Z,68.60
2022-10-27T17:57:33.856Z,68.48
2022-10-27T18:00:00.751Z,68.42
2022-10-27T18:02:28.081Z,68.20
2022-10-27T18:04:54.926Z,67.94
2022-10-27T18:07:21.874Z,68.11
2022-10-27T18:09:48.675Z,67.86
2022-10-27T18:12:15.457Z,68.24
2022-10-27T18:14:42.609Z,67.44
2022-10-27T18:17:09.549Z,67.17
2022-10-27T18:19:36.661Z,66.93
2022-10-27T18:22:03.755Z,67.26
2022-10-27T18:24:30.616Z,68.04
2022-10-27T18:26:57.541Z,68.42
2022-10-27T18:29:26.545Z,68.60
2022-10-27T18:31:53.891Z,69.02
2022-10-27T18:34:20.759Z,69.29
2022-10-27T18:36:47.574Z,69.29
2022-10-27T18:39:17.297Z,69.48
2022-10-27T18:41:45.027Z,68.21
2022-10-27T18:44:12.342Z,68.62
2022-10-27T18:46:39.197Z,68.59
2022-10-27T18:49:11.859Z,69.08
2022-10-27T18:51:43.631Z,69.13
2022-10-27T18:54:11.639Z,68.79
2022-10-27T18:56:38.546Z,68.46
2022-10-27T18:59:06.857Z,68.07
2022-10-27T19:01:34.572Z,68.54
2022-10-27T19:04:03.451Z,68.29
2022-10-27T19:06:32.857Z,67.95
2022-10-27T19:09:00.230Z,69.71
2022-10-27T19:11:28.159Z,69.01
2022-10-27T19:13:54.964Z,68.80
2022-10-27T19:16:23.157Z,69.44
2022-10-27T19:18:49.967Z,69.11
2022-10-27T19:21:19.543Z,68.41
2022-10-27T19:23:48.324Z,68.36
2022-10-27T19:26:17.637Z,67.49
2022-10-27T19:28:46.939Z,68.82
2022-10-27T19:31:20.096Z,68.59
2022-10-27T19:33:48.395Z,67.29
2022-10-27T19:36:25.231Z,67.80
2022-10-27T19:38:52.781Z,67.51
2022-10-27T19:41:22.790Z,67.09
2022-10-27T19:43:50.397Z,68.26
2022-10-27T19:46:18.482Z,67.22
2022-10-27T19:48:56.020Z,67.80
2022-10-27T19:51:28.682Z,67.77
2022-10-27T19:53:56.848Z,67.70
2022-10-27T19:56:25.523Z,68.46
2022-10-27T19:58:54.854Z,67.91
2022-10-27T20:01:27.924Z,68.01
2022-10-27T20:03:54.965Z,68.81
2022-10-27T20:06:21.886Z,69.52
2022-10-27T20:08:52.276Z,68.96
2022-10-27T20:11:24.138Z,69.69
2022-10-27T20:13:50.923Z,69.63
2022-10-27T20:16:20.407Z,68.94
2022-10-27T20:18:47.226Z,68.79
2022-10-27T20:21:15.005Z,68.70
2022-10-27T20:23:43.158Z,68.61
2022-10-27T20:26:28.635Z,69.85
2022-10-27T20:28:57.961Z,70.16
2022-10-27T20:31:24.772Z,70.56
2022-10-27T20:33:51.660Z,70.01
2022-10-27T20:36:18.474Z,70.35
2022-10-27T20:38:45.453Z,70.11
2022-10-27T20:41:20.920Z,69.40
2022-10-27T20:43:47.859Z,68.85
2022-10-27T20:46:14.859Z,68.98
2022-10-27T20:48:41.728Z,68.72
2022-10-27T20:51:12.308Z,69.11
2022-10-27T20:53:40.126Z,69.52
2022-10-27T20:56:17.998Z,69.30
2022-10-27T20:58:45.260Z,68.71
2022-10-27T21:01:34.957Z,69.17
2022-10-27T21:04:10.037Z,69.45
2022-10-27T21:06:42.414Z,70.07
2022-10-27T21:09:12.015Z,70.21
2022-10-27T21:11:39.200Z,69.78
2022-10-27T21:14:07.624Z,69.37
2022-10-27T21:16:34.803Z,70.21
2022-10-27T21:19:04.386Z,70.09
2022-10-27T21:21:32.405Z,70.58
2022-10-27T21:24:00.365Z,70.04
2022-10-27T21:26:42.026Z,70.61
2022-10-27T21:29:09.797Z,70.19
2022-10-27T21:31:37.797Z,71.55
2022-10-27T21:34:05.785Z,71.19
2022-10-27T21:36:33.148Z,71.16
2022-10-27T21:39:11.779Z,69.86
2022-10-27T21:41:41.412Z,69.74
2022-10-27T21:44:08.183Z,69.78
2022-10-27T21:46:35.119Z,69.44
2022-10-27T21:49:03.060Z,71.11
2022-10-27T21:51:30.607Z,69.77
2022-10-27T21:54:02.352Z,69.38
2022-10-27T21:56:34.865Z,69.76
2022-10-27T21:59:02.537Z,69.29
2022-10-27T22:01:29.964Z,69.15
2022-10-27T22:03:57.276Z,69.51
2022-10-27T22:06:27.974Z,68.81
2022-10-27T22:08:56.402Z,68.98
2022-10-27T22:11:28.098Z,68.58
2022-10-27T22:13:55.132Z,68.20
2022-10-27T22:16:25.291Z,68.88
2022-10-27T22:18:54.281Z,68.50
2022-10-27T22:21:21.991Z,67.79
2022-10-27T22:23:49.304Z,68.87
2022-10-27T22:26:19.262Z,68.45
2022-10-27T22:28:47.237Z,68.29
2022-10-27T22:31:18.689Z,68.50
2022-10-27T22:33:46.195Z,68.56
2022-10-27T22:36:15.453Z,69.23
2022-10-27T22:38:42.897Z,68.86
2022-10-27T22:41:12.928Z,69.10
2022-10-27T22:43:39.874Z,69.18
2022-10-27T22:46:07.849Z,68.98
2022-10-27T22:48:36.026Z,69.26
2022-10-27T22:51:05.851Z,69.35
2022-10-27T22:53:36.396Z,69.42
2022-10-27T22:56:09.992Z,69.65
2022-10-27T22:58:37.515Z,69.27
2022-10-27T23:01:11.068Z,68.82
2022-10-27T23:03:38.670Z,68.83
2022-10-27T23:06:06.236Z,69.18
2022-10-27T23:08:33.388Z,68.94
2022-10-27T23:11:02.805Z,69.50
2022-10-27T23:13:32.978Z,68.92
2022-10-27T23:16:02.211Z,68.56
2022-10-27T23:18:29.766Z,69.27
2022-10-27T23:20:57.975Z,68.63
2022-10-27T23:23:26.503Z,69.71
2022-10-27T23:25:54.124Z,69.44
2022-10-27T23:28:21.552Z,69.33
2022-10-27T23:30:48.610Z,69.79
2022-10-27T23:33:16.494Z,69.00
2022-10-27T23:35:43.901Z,69.82
2022-10-27T23:38:10.797Z,69.58
2022-10-27T23:40:37.850Z,69.37
2022-10-27T23:43:04.612Z,69.49
2022-10-27T23:45:31.453Z,69.65
2022-10-27T23:47:58.239Z,68.75
2022-10-27T23:50:25.012Z,69.65
2022-10-27T23:52:52.076Z,70.52
2022-10-27T23:55:18.987Z,69.97
2022-10-27T23:57:45.760Z,69.76
